createdAt,value
2023-01-17T00:02:23.471Z,97557.41
2023-01-17T00:05:09.023Z,97543.63
2023-01-17T00:07:55.017Z,97544.38
2023-01-17T00:10:27.848Z,97542.75
2023-01-17T00:13:03.278Z,97538.31
2023-01-17T00:15:31.888Z,97534.44
2023-01-17T00:17:59.297Z,97530.56
2023-01-17T00:20:49.415Z,97535.00
2023-01-17T00:23:41.299Z,97526.06
2023-01-17T00:26:19.510Z,97530.50
2023-01-17T00:28:46.995Z,97532.97
2023-01-17T00:31:16.398Z,97534.50
2023-01-17T00:33:43.661Z,97539.00
2023-01-17T00:36:11.540Z,97538.72
2023-01-17T00:38:41.937Z,97526.69
2023-01-17T00:41:14.932Z,97520.63
2023-01-17T00:44:00.669Z,97521.75
2023-01-17T00:46:46.127Z,97528.88
2023-01-17T00:49:32.459Z,97520.13
2023-01-17T00:52:18.316Z,97524.59
2023-01-17T00:55:03.833Z,97528.88
2023-01-17T00:57:49.545Z,97515.81
2023-01-17T01:00:38.108Z,97519.28
2023-01-17T01:03:30.792Z,97512.94
2023-01-17T01:06:16.284Z,97516.69
2023-01-17T01:09:01.827Z,97506.16
2023-01-17T01:11:47.302Z,97513.06
2023-01-17T01:14:32.813Z,97504.25
2023-01-17T01:17:18.346Z,97504.88
2023-01-17T01:20:03.798Z,97508.88
2023-01-17T01:22:49.232Z,97507.31
2023-01-17T01:25:35.921Z,97503.53
2023-01-17T01:28:30.633Z,97491.34
2023-01-17T01:31:23.328Z,97494.53
2023-01-17T01:33:53.721Z,97499.53
2023-01-17T01:36:21.459Z,97492.91
2023-01-17T01:38:50.191Z,97486.13
2023-01-17T01:41:18.133Z,97473.38
2023-01-17T01:43:52.963Z,97475.00
2023-01-17T01:46:41.200Z,97476.09
2023-01-17T01:49:25.739Z,97477.84
2023-01-17T01:51:59.802Z,97472.31
2023-01-17T01:54:46.705Z,97465.69
2023-01-17T01:57:46.799Z,97464.75
2023-01-17T02:12:45.815Z,97465.09
2023-01-17T02:15:13.103Z,97462.16
2023-01-17T02:22:55.666Z,97448.81
2023-01-17T02:29:33.199Z,97441.22
2023-01-17T02:33:11.006Z,97444.81
2023-01-17T02:35:59.292Z,97448.91
2023-01-17T02:39:09.661Z,97444.56
2023-01-17T02:41:46.056Z,97440.91
2023-01-17T02:44:20.096Z,97438.25
2023-01-17T02:46:54.309Z,97447.72
2023-01-17T02:49:28.129Z,97438.94
2023-01-17T02:52:21.458Z,97449.63
2023-01-17T02:55:26.121Z,97444.56
2023-01-17T02:58:18.415Z,97448.13
2023-01-17T03:01:40.340Z,97443.84
2023-01-17T03:04:22.852Z,97442.72
2023-01-17T03:07:09.759Z,97449.19
2023-01-17T03:09:38.507Z,97443.41
2023-01-17T03:12:06.735Z,97445.69
2023-01-17T03:14:33.905Z,97453.66
2023-01-17T03:17:00.936Z,97449.91
2023-01-17T03:19:27.940Z,97452.22
2023-01-17T03:21:54.965Z,97449.75
2023-01-17T03:24:21.923Z,97440.88
2023-01-17T03:26:48.913Z,97449.63
2023-01-17T03:29:16.589Z,97453.00
2023-01-17T03:31:43.648Z,97446.66
2023-01-17T03:34:10.974Z,97449.63
2023-01-17T03:36:38.010Z,97453.69
2023-01-17T03:39:05.116Z,97438.97
2023-01-17T03:41:34.485Z,97446.53
2023-01-17T03:44:01.528Z,97435.44
2023-01-17T03:46:28.740Z,97439.34
2023-01-17T03:48:55.785Z,97434.13
2023-01-17T03:51:23.405Z,97441.94
2023-01-17T03:53:51.887Z,97437.50
2023-01-17T03:56:19.090Z,97443.50
2023-01-17T03:58:46.215Z,97440.75
2023-01-17T04:01:13.398Z,97439.19
2023-01-17T04:03:40.800Z,97442.09
2023-01-17T04:06:08.087Z,97445.06
2023-01-17T04:08:35.096Z,97446.47
2023-01-17T04:11:02.517Z,97452.66
2023-01-17T04:13:29.585Z,97450.72
2023-01-17T04:15:59.125Z,97454.28
2023-01-17T04:18:26.573Z,97453.59
2023-01-17T04:20:53.697Z,97448.91
2023-01-17T04:23:20.770Z,97460.88
2023-01-17T04:25:47.760Z,97455.56
2023-01-17T04:28:14.893Z,97450.22
2023-01-17T04:30:41.940Z,97456.72
2023-01-17T04:33:09.019Z,97463.97
2023-01-17T04:35:38.849Z,97460.28
2023-01-17T04:38:06.155Z,97459.75
2023-01-17T04:40:45.181Z,97459.31
2023-01-17T04:43:12.204Z,97461.09
2023-01-17T04:45:39.303Z,97457.38
2023-01-17T04:48:07.345Z,97460.44
2023-01-17T04:50:34.486Z,97452.66
2023-01-17T04:53:01.885Z,97466.94
2023-01-17T04:55:29.047Z,97477.28
2023-01-17T04:57:56.215Z,97478.09
2023-01-17T05:00:24.292Z,97473.72
2023-01-17T05:02:52.059Z,97485.72
2023-01-17T05:05:19.161Z,97491.53
2023-01-17T05:07:57.108Z,97490.28
2023-01-17T05:10:25.178Z,97497.81
2023-01-17T05:12:57.342Z,97495.91
2023-01-17T05:15:26.335Z,97488.44
2023-01-17T05:17:54.728Z,97489.25
2023-01-17T05:20:27.845Z,97492.66
2023-01-17T05:22:56.982Z,97499.31
2023-01-17T05:25:30.985Z,97508.34
2023-01-17T05:28:02.011Z,97505.78
2023-01-17T05:30:32.578Z,97516.59
2023-01-17T05:33:00.036Z,97518.06
2023-01-17T05:35:32.675Z,97525.63
2023-01-17T05:37:59.762Z,97523.56
2023-01-17T05:40:32.052Z,97525.56
2023-01-17T05:43:01.349Z,97533.00
2023-01-17T05:45:31.453Z,97526.66
2023-01-17T05:47:59.199Z,97521.00
2023-01-17T05:50:31.362Z,97522.59
2023-01-17T05:53:09.922Z,97529.91
2023-01-17T05:55:38.257Z,97532.66
2023-01-17T05:58:07.261Z,97528.75
2023-01-17T06:00:34.782Z,97535.25
2023-01-17T06:03:02.040Z,97533.97
2023-01-17T06:05:30.404Z,97548.69
2023-01-17T06:07:58.310Z,97549.00
2023-01-17T06:10:27.193Z,97557.56
2023-01-17T06:13:15.142Z,97564.41
2023-01-17T06:15:43.143Z,97558.25
2023-01-17T06:18:14.461Z,97561.81
2023-01-17T06:20:45.085Z,97566.97
2023-01-17T06:23:14.709Z,97576.88
2023-01-17T06:25:47.287Z,97579.59
2023-01-17T06:28:21.001Z,97570.38
2023-01-17T06:30:48.792Z,97577.97
2023-01-17T06:33:16.439Z,97584.78
2023-01-17T06:35:52.359Z,97581.53
2023-01-17T06:38:20.161Z,97576.34
2023-01-17T06:40:47.782Z,97584.13
2023-01-17T06:43:14.876Z,97577.69
2023-01-17T06:45:42.235Z,97585.38
2023-01-17T06:48:09.335Z,97596.56
2023-01-17T06:50:36.363Z,97600.31
2023-01-17T06:53:06.852Z,97595.94
2023-01-17T06:55:35.208Z,97603.88
2023-01-17T06:58:02.886Z,97604.16
2023-01-17T07:00:34.888Z,97616.44
2023-01-17T07:03:02.081Z,97611.63
2023-01-17T07:05:29.329Z,97624.28
2023-01-17T07:07:57.453Z,97625.22
2023-01-17T07:10:24.496Z,97627.47
2023-01-17T07:12:51.616Z,97637.38
2023-01-17T07:15:18.878Z,97643.50
2023-01-17T07:18:07.930Z,97641.41
2023-01-17T07:20:35.082Z,97646.41
2023-01-17T07:23:02.160Z,97660.66
2023-01-17T07:25:29.457Z,97666.47
2023-01-17T07:27:57.555Z,97666.94
2023-01-17T07:30:25.263Z,97670.06
2023-01-17T07:32:53.976Z,97659.69
2023-01-17T07:35:22.325Z,97656.13
2023-01-17T07:37:51.362Z,97666.66
2023-01-17T07:40:20.725Z,97662.28
2023-01-17T07:42:50.847Z,97662.91
2023-01-17T07:45:18.137Z,97667.13
2023-01-17T07:47:45.501Z,97672.16
2023-01-17T07:50:13.598Z,97666.97
2023-01-17T07:52:41.024Z,97666.16
2023-01-17T07:55:09.594Z,97666.97
2023-01-17T07:57:36.632Z,97674.59
2023-01-17T08:00:05.752Z,97671.66
2023-01-17T08:02:32.823Z,97680.75
2023-01-17T08:04:59.814Z,97670.75
2023-01-17T08:07:26.840Z,97668.31
2023-01-17T08:09:54.745Z,97667.91
2023-01-17T08:12:21.751Z,97677.63
2023-01-17T08:14:48.813Z,97684.28
2023-01-17T08:17:21.800Z,97684.13
2023-01-17T08:19:53.078Z,97690.34
2023-01-17T08:22:22.424Z,97691.94
2023-01-17T08:24:49.887Z,97689.97
2023-01-17T08:27:17.101Z,97694.19
2023-01-17T08:29:47.218Z,97690.94
2023-01-17T08:32:15.799Z,97680.00
2023-01-17T08:34:42.880Z,97696.47
2023-01-17T08:37:09.903Z,97700.38
2023-01-17T08:39:37.030Z,97708.91
2023-01-17T08:42:04.347Z,97702.81
2023-01-17T08:44:31.466Z,97707.38
2023-01-17T08:46:59.080Z,97709.81
2023-01-17T08:49:28.303Z,97715.31
2023-01-17T08:51:55.563Z,97721.28
2023-01-17T08:54:22.962Z,97717.53
2023-01-17T08:56:52.691Z,97718.47
2023-01-17T08:59:19.770Z,97722.91
2023-01-17T09:01:46.994Z,97721.53
2023-01-17T09:04:15.303Z,97729.78
2023-01-17T09:06:48.401Z,97740.56
2023-01-17T09:09:18.822Z,97737.53
2023-01-17T09:11:45.857Z,97730.69
2023-01-17T09:14:13.818Z,97752.88
2023-01-17T09:16:40.898Z,97746.38
2023-01-17T09:19:08.899Z,97748.69
2023-01-17T09:21:36.150Z,97759.03
2023-01-17T09:24:03.461Z,97750.50
2023-01-17T09:26:31.321Z,97769.19
2023-01-17T09:28:58.776Z,97752.28
2023-01-17T09:31:29.737Z,97766.56
2023-01-17T09:33:58.760Z,97769.94
2023-01-17T09:36:28.919Z,97761.69
2023-01-17T09:38:58.808Z,97763.97
2023-01-17T09:41:56.813Z,97770.47
2023-01-17T09:44:51.565Z,97769.97
2023-01-17T09:47:46.073Z,97785.69
2023-01-17T09:50:25.696Z,97798.66
2023-01-17T09:53:14.731Z,97805.06
2023-01-17T09:55:52.558Z,97817.78
2023-01-17T09:58:53.225Z,97829.16
2023-01-17T10:02:23.813Z,97835.38
2023-01-17T10:06:07.305Z,97836.53
2023-01-17T10:09:13.438Z,97835.84
2023-01-17T10:12:11.346Z,97841.50
2023-01-17T10:15:14.893Z,97845.69
2023-01-17T10:18:30.000Z,97851.19
2023-01-17T10:21:13.074Z,97860.22
2023-01-17T10:24:10.919Z,97850.31
2023-01-17T10:26:38.927Z,97860.75
2023-01-17T10:29:20.150Z,97869.06
2023-01-17T10:32:02.123Z,97867.97
2023-01-17T10:34:44.151Z,97870.69
2023-01-17T10:37:30.273Z,97877.94
2023-01-17T10:40:38.346Z,97879.56
2023-01-17T10:43:30.666Z,97887.47
2023-01-17T10:46:01.370Z,97891.22
2023-01-17T10:48:44.101Z,97889.56
2023-01-17T10:52:00.692Z,97900.00
2023-01-17T10:55:08.662Z,97906.22
2023-01-17T10:57:44.906Z,97907.19
2023-01-17T11:01:00.248Z,97909.91
2023-01-17T11:03:28.683Z,97918.19
2023-01-17T11:06:16.032Z,97919.81
2023-01-17T11:08:57.366Z,97917.81
2023-01-17T11:11:32.343Z,97919.06
2023-01-17T11:14:24.689Z,97917.81
2023-01-17T11:17:06.615Z,97922.72
2023-01-17T11:19:39.368Z,97927.22
2023-01-17T11:22:13.860Z,97921.66
2023-01-17T11:25:00.108Z,97918.72
2023-01-17T11:27:41.136Z,97919.38
2023-01-17T11:30:18.373Z,97924.09
2023-01-17T11:33:03.150Z,97921.28
2023-01-17T11:35:45.150Z,97924.34
2023-01-17T11:38:25.534Z,97928.59
2023-01-17T11:41:15.791Z,97934.56
2023-01-17T11:43:55.710Z,97940.50
2023-01-17T11:46:23.927Z,97941.78
2023-01-17T11:48:57.170Z,97941.56
2023-01-17T11:51:42.557Z,97959.00
2023-01-17T11:54:28.466Z,97959.75
2023-01-17T11:57:02.314Z,97966.38
2023-01-17T11:59:35.254Z,97977.53
2023-01-17T12:02:39.682Z,97989.16
2023-01-17T12:06:13.751Z,97988.22
2023-01-17T12:09:23.087Z,97987.16
2023-01-17T12:12:45.564Z,97983.13
2023-01-17T12:15:50.877Z,97989.31
2023-01-17T12:19:18.402Z,97989.94
2023-01-17T12:22:04.714Z,97994.16
2023-01-17T12:24:45.098Z,97993.72
2023-01-17T12:28:08.711Z,98007.91
2023-01-17T12:31:03.195Z,98010.38
2023-01-17T12:33:45.913Z,98007.78
2023-01-17T12:36:54.112Z,98019.78
2023-01-17T12:39:30.910Z,98021.41
2023-01-17T12:42:20.448Z,98027.88
2023-01-17T12:45:11.884Z,98032.66
2023-01-17T12:47:49.008Z,98031.94
2023-01-17T12:51:06.413Z,98043.06
2023-01-17T12:54:05.337Z,98039.09
2023-01-17T12:57:09.041Z,98046.19
2023-01-17T13:00:08.275Z,98043.09
2023-01-17T13:03:03.721Z,98040.16
2023-01-17T13:05:47.371Z,98044.66
2023-01-17T13:08:40.921Z,98042.97
2023-01-17T13:11:28.578Z,98051.09
2023-01-17T13:13:57.500Z,98052.28
2023-01-17T13:16:46.320Z,98053.25
2023-01-17T13:19:29.640Z,98059.69
2023-01-17T13:21:57.861Z,98059.97
2023-01-17T13:24:55.579Z,98062.50
2023-01-17T13:28:03.784Z,98066.56
2023-01-17T13:30:58.227Z,98072.19
2023-01-17T13:34:14.265Z,98072.88
2023-01-17T13:37:27.039Z,98075.53
2023-01-17T13:40:53.594Z,98083.38
2023-01-17T13:43:34.346Z,98087.13
2023-01-17T13:46:03.642Z,98093.69
2023-01-17T13:48:40.980Z,98095.88
2023-01-17T13:51:11.576Z,98097.81
2023-01-17T13:53:41.429Z,98100.69
2023-01-17T13:56:19.102Z,98105.06
2023-01-17T13:58:50.150Z,98115.06
2023-01-17T14:01:23.045Z,98111.63
2023-01-17T14:03:50.097Z,98107.97
2023-01-17T14:06:59.422Z,98109.34
2023-01-17T14:09:40.865Z,98120.84
2023-01-17T14:12:10.404Z,98121.59
2023-01-17T14:14:40.234Z,98128.69
2023-01-17T14:17:16.346Z,98132.00
2023-01-17T14:19:51.978Z,98136.09
2023-01-17T14:22:18.836Z,98138.53
2023-01-17T14:25:17.402Z,98150.81
2023-01-17T14:27:51.716Z,98154.47
2023-01-17T14:30:31.915Z,98166.91
2023-01-17T14:33:01.893Z,98171.00
2023-01-17T14:35:37.483Z,98167.69
2023-01-17T14:38:29.805Z,98178.59
2023-01-17T14:41:09.592Z,98184.59
2023-01-17T14:43:45.199Z,98192.03
2023-01-17T14:46:29.369Z,98197.22
2023-01-17T14:49:06.162Z,98191.66
2023-01-17T14:51:38.454Z,98200.38
2023-01-17T14:54:22.259Z,98204.47
2023-01-17T14:56:52.281Z,98200.56
2023-01-17T14:59:23.668Z,98200.03
2023-01-17T15:02:08.156Z,98203.00
2023-01-17T15:04:39.300Z,98203.41
2023-01-17T15:07:07.496Z,98203.69
2023-01-17T15:09:37.723Z,98212.53
2023-01-17T15:12:08.450Z,98212.97
2023-01-17T15:14:43.650Z,98214.88
2023-01-17T15:17:26.463Z,98222.91
2023-01-17T15:20:00.225Z,98225.06
2023-01-17T15:22:29.626Z,98224.94
2023-01-17T15:24:58.496Z,98222.78
2023-01-17T15:27:26.538Z,98229.84
2023-01-17T15:29:59.112Z,98240.88
2023-01-17T15:32:31.077Z,98242.38
2023-01-17T15:34:59.381Z,98246.44
2023-01-17T15:37:39.887Z,98249.44
2023-01-17T15:40:11.442Z,98242.78
2023-01-17T15:42:42.503Z,98242.66
2023-01-17T15:45:22.494Z,98240.44
2023-01-17T15:47:49.875Z,98247.69
2023-01-17T15:50:32.004Z,98245.75
2023-01-17T15:53:05.093Z,98254.00
2023-01-17T15:55:38.897Z,98252.66
2023-01-17T15:58:27.625Z,98258.91
2023-01-17T16:00:55.453Z,98257.41
2023-01-17T16:03:29.499Z,98265.41
2023-01-17T16:06:00.534Z,98269.22
2023-01-17T16:08:40.092Z,98274.38
2023-01-17T16:11:11.512Z,98276.25
2023-01-17T16:13:47.247Z,98271.31
2023-01-17T16:16:24.608Z,98273.38
2023-01-17T16:19:00.470Z,98266.81
2023-01-17T16:21:31.569Z,98270.78
2023-01-17T16:23:59.732Z,98272.22
2023-01-17T16:26:28.897Z,98272.69
2023-01-17T16:28:55.983Z,98270.84
2023-01-17T16:31:26.234Z,98265.69
2023-01-17T16:33:53.609Z,98266.19
2023-01-17T16:36:22.809Z,98261.53
2023-01-17T16:38:51.858Z,98267.59
2023-01-17T16:41:20.327Z,98269.34
2023-01-17T16:44:05.298Z,98275.50
2023-01-17T16:46:32.806Z,98271.75
2023-01-17T16:49:01.119Z,98270.22
2023-01-17T16:51:28.169Z,98276.31
2023-01-17T16:53:55.224Z,98274.38
2023-01-17T16:56:22.363Z,98278.72
2023-01-17T16:58:53.060Z,98279.78
2023-01-17T17:01:22.472Z,98277.09
2023-01-17T17:03:49.708Z,98279.78
2023-01-17T17:06:17.043Z,98284.81
2023-01-17T17:08:44.240Z,98280.50
2023-01-17T17:11:19.812Z,98286.03
2023-01-17T17:13:49.450Z,98287.09
2023-01-17T17:16:30.886Z,98294.09
2023-01-17T17:19:05.135Z,98290.72
2023-01-17T17:21:34.345Z,98297.72
2023-01-17T17:24:02.369Z,98297.84
2023-01-17T17:26:36.711Z,98303.22
2023-01-17T17:29:06.463Z,98308.97
2023-01-17T17:31:33.671Z,98312.38
2023-01-17T17:34:03.894Z,98316.34
2023-01-17T17:36:31.478Z,98317.78
2023-01-17T17:38:59.012Z,98324.22
2023-01-17T17:41:30.413Z,98323.81
2023-01-17T17:43:59.997Z,98327.97
2023-01-17T17:46:29.111Z,98330.13
2023-01-17T17:48:58.393Z,98328.50
2023-01-17T17:51:36.332Z,98326.84
2023-01-17T17:54:11.061Z,98341.59
2023-01-17T17:56:39.684Z,98336.63
2023-01-17T17:59:09.383Z,98340.22
2023-01-17T18:01:38.214Z,98344.28
2023-01-17T18:04:07.439Z,98342.91
2023-01-17T18:06:36.089Z,98345.91
2023-01-17T18:09:03.586Z,98347.28
2023-01-17T18:11:31.879Z,98350.41
2023-01-17T18:14:02.597Z,98349.38
2023-01-17T18:16:39.431Z,98346.97
2023-01-17T18:19:06.534Z,98346.28
2023-01-17T18:21:38.096Z,98349.34
2023-01-17T18:24:12.866Z,98349.81
2023-01-17T18:26:50.092Z,98340.72
2023-01-17T18:29:21.786Z,98339.69
2023-01-17T18:31:51.662Z,98344.53
2023-01-17T18:34:27.053Z,98353.31
2023-01-17T18:36:54.671Z,98356.28
2023-01-17T18:39:27.661Z,98355.03
2023-01-17T18:41:54.872Z,98361.19
2023-01-17T18:44:24.664Z,98357.03
2023-01-17T18:46:54.858Z,98361.28
2023-01-17T18:49:22.492Z,98359.16
2023-01-17T18:51:51.122Z,98361.84
2023-01-17T18:54:20.458Z,98368.59
2023-01-17T18:56:48.075Z,98368.16
2023-01-17T18:59:18.428Z,98372.81
2023-01-17T19:01:46.193Z,98369.47
2023-01-17T19:04:16.366Z,98373.00
2023-01-17T19:06:47.788Z,98380.03
2023-01-17T19:09:16.246Z,98375.88
2023-01-17T19:11:45.352Z,98384.34
2023-01-17T19:14:13.261Z,98384.22
2023-01-17T19:16:42.031Z,98382.22
2023-01-17T19:19:14.252Z,98386.16
2023-01-17T19:21:41.713Z,98382.78
2023-01-17T19:24:10.848Z,98388.41
2023-01-17T19:26:37.905Z,98399.53
2023-01-17T19:29:06.640Z,98400.38
2023-01-17T19:31:44.326Z,98402.31
2023-01-17T19:34:14.137Z,98395.94
2023-01-17T19:36:41.383Z,98396.56
2023-01-17T19:39:11.865Z,98391.84
2023-01-17T19:41:44.513Z,98401.78
2023-01-17T19:44:14.280Z,98402.28
2023-01-17T19:46:41.380Z,98398.63
2023-01-17T19:49:09.921Z,98405.56
2023-01-17T19:51:39.352Z,98405.09
2023-01-17T19:54:09.426Z,98411.66
2023-01-17T19:56:36.695Z,98407.66
2023-01-17T19:59:04.358Z,98412.44
2023-01-17T20:01:34.260Z,98405.59
2023-01-17T20:04:03.763Z,98410.44
2023-01-17T20:06:35.659Z,98416.25
2023-01-17T20:09:05.110Z,98410.25
2023-01-17T20:11:32.407Z,98413.44
2023-01-17T20:14:00.286Z,98408.06
2023-01-17T20:16:31.357Z,98419.19
2023-01-17T20:19:00.073Z,98406.66
2023-01-17T20:21:30.165Z,98413.22
2023-01-17T20:23:59.973Z,98414.44
2023-01-17T20:26:34.768Z,98418.78
2023-01-17T20:29:11.677Z,98411.59
2023-01-17T20:31:41.415Z,98413.09
2023-01-17T20:34:12.513Z,98411.38
2023-01-17T20:36:44.274Z,98412.00
2023-01-17T20:39:14.523Z,98407.34
2023-01-17T20:41:45.427Z,98414.44
2023-01-17T20:44:15.372Z,98424.81
2023-01-17T20:46:47.672Z,98422.13
2023-01-17T20:49:19.262Z,98433.00
2023-01-17T20:51:47.503Z,98429.94
2023-01-17T20:54:18.867Z,98440.56
2023-01-17T20:56:47.746Z,98440.56
2023-01-17T20:59:21.671Z,98433.97
2023-01-17T21:01:50.030Z,98443.47
2023-01-17T21:04:22.881Z,98451.50
2023-01-17T21:06:51.554Z,98452.38
2023-01-17T21:09:21.923Z,98461.84
2023-01-17T21:11:49.379Z,98467.63
2023-01-17T21:14:16.512Z,98474.78
2023-01-17T21:16:44.597Z,98482.00
2023-01-17T21:19:14.972Z,98492.50
2023-01-17T21:21:42.070Z,98491.72
2023-01-17T21:24:09.777Z,98495.66
2023-01-17T21:26:38.837Z,98496.66
2023-01-17T21:29:05.919Z,98497.59
2023-01-17T21:31:35.054Z,98498.66
2023-01-17T21:34:08.559Z,98512.28
2023-01-17T21:36:39.378Z,98520.34
2023-01-17T21:39:18.259Z,98533.41
2023-01-17T21:41:49.585Z,98532.41
2023-01-17T21:44:23.241Z,98535.44
2023-01-17T21:46:56.122Z,98538.41
2023-01-17T21:49:24.216Z,98537.78
2023-01-17T21:51:53.937Z,98540.09
2023-01-17T21:54:48.439Z,98552.38
2023-01-17T21:57:39.691Z,98546.59
2023-01-17T22:00:14.403Z,98544.81
2023-01-17T22:02:43.268Z,98552.06
2023-01-17T22:05:11.406Z,98551.97
2023-01-17T22:08:01.524Z,98548.84
2023-01-17T22:10:28.731Z,98554.81
2023-01-17T22:12:55.803Z,98547.03
2023-01-17T22:15:23.352Z,98548.50
2023-01-17T22:17:50.328Z,98549.88
2023-01-17T22:20:18.532Z,98536.97
2023-01-17T22:22:48.279Z,98548.13
2023-01-17T22:25:15.548Z,98554.16
2023-01-17T22:27:42.502Z,98548.66
2023-01-17T22:30:12.945Z,98555.44
2023-01-17T22:32:40.234Z,98561.56
2023-01-17T22:35:08.209Z,98560.69
2023-01-17T22:37:35.538Z,98556.75
2023-01-17T22:40:04.824Z,98559.31
2023-01-17T22:42:35.140Z,98555.19
2023-01-17T22:45:02.655Z,98551.31
2023-01-17T22:47:30.060Z,98551.50
2023-01-17T22:49:57.092Z,98550.72
2023-01-17T22:52:24.165Z,98550.31
2023-01-17T22:54:51.275Z,98543.84
2023-01-17T22:57:18.625Z,98548.34
2023-01-17T22:59:45.599Z,98556.19
2023-01-17T23:02:12.696Z,98553.47
2023-01-17T23:04:39.791Z,98556.72
2023-01-17T23:07:06.824Z,98553.34
2023-01-17T23:09:33.873Z,98549.59
2023-01-17T23:12:00.947Z,98545.91
2023-01-17T23:14:54.515Z,98559.03
2023-01-17T23:17:42.897Z,98546.78
2023-01-17T23:20:11.915Z,98535.72
2023-01-17T23:22:39.202Z,98534.00
2023-01-17T23:25:10.934Z,98530.75
2023-01-17T23:28:06.238Z,98538.78
2023-01-17T23:30:39.340Z,98536.22
2023-01-17T23:33:13.853Z,98532.56
2023-01-17T23:35:44.843Z,98536.91
2023-01-17T23:38:28.981Z,98529.78
2023-01-17T23:41:26.201Z,98530.84
2023-01-17T23:43:58.878Z,98521.25
2023-01-17T23:46:27.110Z,98514.28
2023-01-17T23:48:55.067Z,98514.50
2023-01-17T23:51:22.391Z,98506.59
2023-01-17T23:53:50.867Z,98496.47
2023-01-17T23:56:23.011Z,98504.44
2023-01-17T23:58:50.159Z,98500.66
